Time;durP1;ratioP1;P1;durP2;ratioP2;P2;SDS_P1;SDS_P2;PMS_P1;PMS_P2;Temp;Humidity;BMP_temperature;BMP_pressure;BME280_temperature;BME280_humidity;BME280_pressure;Samples;Min_cycle;Max_cycle;Signal;HPM_P1;HPM_P2
2023/07/23 00:00:52;;;;;;;10.52;6.00;;;18.30;99.90;;;;;;5028145;28;20026;-62
2023/07/23 00:03:18;;;;;;;12.48;5.40;;;18.30;99.90;;;;;;5037078;28;20052;-62
2023/07/23 00:05:47;;;;;;;9.27;4.60;;;18.20;99.90;;;;;;5031189;28;20393;-62
2023/07/23 00:08:13;;;;;;;9.90;5.43;;;18.10;99.90;;;;;;5032499;28;20520;-63
2023/07/23 00:10:39;;;;;;;9.05;4.75;;;18.10;99.90;;;;;;5032210;28;20030;-62
2023/07/23 00:13:05;;;;;;;14.93;5.30;;;17.90;99.90;;;;;;5037251;28;20040;-62
2023/07/23 00:15:30;;;;;;;10.30;4.70;;;17.90;99.90;;;;;;5030009;28;20379;-62
2023/07/23 00:17:58;;;;;;;7.90;5.00;;;17.80;99.90;;;;;;5027857;28;20037;-62
2023/07/23 00:20:23;;;;;;;9.73;4.35;;;17.80;99.90;;;;;;5031303;28;20032;-61
2023/07/23 00:22:49;;;;;;;9.25;5.32;;;17.70;99.90;;;;;;5031275;28;20033;-63
2023/07/23 00:25:14;;;;;;;10.20;5.15;;;17.70;99.90;;;;;;5029802;28;20029;-62
2023/07/23 00:27:40;;;;;;;8.43;4.97;;;17.70;99.90;;;;;;5037309;28;20029;-62
2023/07/23 00:30:06;;;;;;;9.48;4.95;;;17.70;99.90;;;;;;5036846;28;20036;-62
2023/07/23 00:32:31;;;;;;;11.32;5.50;;;17.60;99.90;;;;;;5029523;28;20037;-63
2023/07/23 00:34:57;;;;;;;11.52;5.85;;;17.60;99.90;;;;;;5035244;28;20032;-61
2023/07/23 00:37:22;;;;;;;10.30;5.72;;;17.60;99.90;;;;;;5028965;28;20030;-62
2023/07/23 00:39:48;;;;;;;7.80;5.07;;;17.60;99.90;;;;;;5029650;28;20032;-62
2023/07/23 00:42:13;;;;;;;9.68;5.15;;;17.60;99.90;;;;;;5040054;28;20079;-61
2023/07/23 00:44:39;;;;;;;9.18;4.80;;;17.60;99.90;;;;;;5032505;28;20033;-61
2023/07/23 00:47:06;;;;;;;9.05;5.07;;;17.60;99.90;;;;;;5029742;28;20034;-62
2023/07/23 00:49:32;;;;;;;10.43;5.70;;;17.60;99.90;;;;;;5037549;28;20806;-61
2023/07/23 00:51:58;;;;;;;6.75;4.63;;;17.60;99.90;;;;;;5034702;28;20029;-61
2023/07/23 00:54:24;;;;;;;10.52;5.05;;;17.70;99.90;;;;;;5027811;28;20415;-62
2023/07/23 00:56:50;;;;;;;11.35;4.63;;;17.70;99.90;;;;;;5035822;28;20119;-63
2023/07/23 00:59:17;;;;;;;7.90;4.93;;;17.70;99.90;;;;;;5035487;28;20407;-62
2023/07/23 01:01:43;;;;;;;7.00;4.63;;;17.70;99.90;;;;;;5035169;28;20123;-61
2023/07/23 01:04:09;;;;;;;6.97;4.57;;;17.70;99.90;;;;;;5028542;28;20588;-63
2023/07/23 01:06:37;;;;;;;9.40;5.20;;;17.70;99.90;;;;;;5030892;28;20030;-62
2023/07/23 01:09:04;;;;;;;9.80;4.68;;;17.70;99.90;;;;;;5029988;28;20028;-62
2023/07/23 01:11:31;;;;;;;8.13;4.75;;;17.70;99.90;;;;;;5035698;28;20527;-62
2023/07/23 01:13:58;;;;;;;10.13;5.03;;;17.80;99.90;;;;;;5032398;28;20045;-62
2023/07/23 01:16:25;;;;;;;12.55;4.63;;;17.70;99.90;;;;;;5041245;28;20115;-61
2023/07/23 01:18:51;;;;;;;7.70;4.70;;;17.80;99.90;;;;;;5037828;28;20097;-62
2023/07/23 01:21:17;;;;;;;6.95;4.13;;;17.70;99.90;;;;;;5041111;28;20516;-62
2023/07/23 01:23:43;;;;;;;8.82;4.50;;;17.70;99.90;;;;;;5031111;28;20037;-61
2023/07/23 01:26:09;;;;;;;8.32;5.05;;;17.80;99.90;;;;;;5035363;28;20074;-61
2023/07/23 01:28:35;;;;;;;8.45;5.40;;;17.80;99.90;;;;;;5032580;28;20437;-60
2023/07/23 01:31:01;;;;;;;9.20;5.07;;;17.80;99.90;;;;;;5020221;28;20029;-62
2023/07/23 01:33:26;;;;;;;8.85;4.88;;;17.80;99.90;;;;;;5034187;28;20026;-61
2023/07/23 01:35:55;;;;;;;11.07;5.53;;;17.80;99.90;;;;;;5031861;28;20025;-61
2023/07/23 01:38:22;;;;;;;9.98;4.97;;;17.80;99.90;;;;;;5038944;28;20061;-62
2023/07/23 01:40:48;;;;;;;8.98;4.85;;;17.80;99.90;;;;;;5045334;28;20191;-62
2023/07/23 01:43:14;;;;;;;8.90;4.63;;;17.80;99.90;;;;;;5041340;28;20029;-61
2023/07/23 01:45:46;;;;;;;10.65;5.10;;;17.80;99.90;;;;;;5028997;28;20041;-62
2023/07/23 01:48:13;;;;;;;11.13;5.85;;;17.80;99.90;;;;;;5038471;28;20127;-62
2023/07/23 01:50:39;;;;;;;13.50;5.65;;;17.80;99.90;;;;;;5027359;28;20057;-61
2023/07/23 01:53:05;;;;;;;9.70;5.85;;;17.80;99.90;;;;;;5039406;28;20511;-62
2023/07/23 01:55:30;;;;;;;8.43;4.53;;;17.80;99.90;;;;;;5024662;28;20034;-61
2023/07/23 01:57:56;;;;;;;11.20;4.78;;;17.80;99.90;;;;;;5039617;28;20104;-60
2023/07/23 02:00:21;;;;;;;12.13;4.95;;;17.80;99.90;;;;;;5028828;28;20033;-61
2023/07/23 02:02:47;;;;;;;7.85;4.93;;;17.90;99.90;;;;;;5036405;28;20100;-60
2023/07/23 02:05:13;;;;;;;11.63;4.93;;;17.90;99.90;;;;;;5024512;28;20050;-61
2023/07/23 02:07:39;;;;;;;7.80;4.78;;;17.90;99.90;;;;;;5028981;28;20025;-60
2023/07/23 02:10:05;;;;;;;8.70;4.93;;;17.90;99.90;;;;;;5024473;28;20031;-61
2023/07/23 02:12:32;;;;;;;8.07;5.15;;;17.90;99.90;;;;;;5036597;28;20056;-61
2023/07/23 02:14:57;;;;;;;8.10;4.80;;;17.90;99.90;;;;;;5033551;28;20080;-59
2023/07/23 02:17:23;;;;;;;11.73;5.07;;;18.10;99.90;;;;;;5037887;28;20045;-61
2023/07/23 02:19:48;;;;;;;10.48;4.53;;;18.10;99.90;;;;;;5031114;28;20063;-61
2023/07/23 02:22:14;;;;;;;7.05;4.28;;;18.20;99.90;;;;;;5038562;28;20037;-61
2023/07/23 02:24:39;;;;;;;7.78;4.53;;;18.20;99.90;;;;;;5025161;28;20036;-62
2023/07/23 02:27:05;;;;;;;9.88;4.97;;;18.30;99.90;;;;;;5038925;28;20557;-61
2023/07/23 02:29:31;;;;;;;10.82;4.38;;;18.40;99.90;;;;;;5032743;28;20051;-59
2023/07/23 02:31:56;;;;;;;11.35;4.78;;;18.40;99.90;;;;;;5038002;28;20152;-59
2023/07/23 02:34:22;;;;;;;8.98;4.72;;;18.40;99.90;;;;;;5032392;28;20392;-61
2023/07/23 02:36:47;;;;;;;9.82;4.68;;;18.50;99.90;;;;;;5030498;28;20496;-58
2023/07/23 02:39:13;;;;;;;10.52;4.78;;;18.50;99.90;;;;;;5035892;28;20110;-61
2023/07/23 02:41:39;;;;;;;6.68;4.28;;;18.50;99.90;;;;;;5033195;28;20021;-61
2023/07/23 02:44:05;;;;;;;7.90;4.45;;;18.50;99.90;;;;;;5036433;28;20037;-60
2023/07/23 02:46:31;;;;;;;7.90;4.68;;;18.50;99.90;;;;;;5031135;28;20036;-62
2023/07/23 02:48:56;;;;;;;6.80;4.65;;;18.50;99.90;;;;;;5039621;28;20018;-62
2023/07/23 02:51:22;;;;;;;9.73;4.57;;;18.60;99.90;;;;;;5036266;28;20581;-61
2023/07/23 02:53:48;;;;;;;8.77;4.78;;;18.50;99.90;;;;;;5036989;28;20516;-62
2023/07/23 02:56:14;;;;;;;8.82;4.78;;;18.60;99.90;;;;;;5038087;28;20029;-61
2023/07/23 02:58:39;;;;;;;10.65;4.80;;;18.50;99.90;;;;;;5039490;28;20025;-62
2023/07/23 03:01:05;;;;;;;7.95;4.70;;;18.50;99.90;;;;;;5028634;28;20104;-61
2023/07/23 03:03:30;;;;;;;13.07;5.43;;;18.50;99.90;;;;;;5037680;28;20033;-62
2023/07/23 03:05:56;;;;;;;10.18;4.90;;;18.50;99.90;;;;;;5037766;28;20025;-62
2023/07/23 03:08:22;;;;;;;6.07;4.45;;;18.50;99.90;;;;;;5036711;28;20095;-61
2023/07/23 03:10:47;;;;;;;8.20;4.55;;;18.50;99.90;;;;;;5030037;28;20029;-61
2023/07/23 03:13:13;;;;;;;8.25;4.40;;;18.50;99.90;;;;;;5023899;28;20033;-62
2023/07/23 03:15:39;;;;;;;7.47;3.97;;;18.50;99.90;;;;;;5029544;28;20030;-61
2023/07/23 03:18:04;;;;;;;7.68;4.47;;;18.50;99.90;;;;;;5040850;28;20083;-62
2023/07/23 03:20:30;;;;;;;7.95;4.47;;;18.50;99.90;;;;;;5030663;28;20040;-61
2023/07/23 03:22:56;;;;;;;9.68;4.28;;;18.40;99.90;;;;;;5042041;28;20106;-61
2023/07/23 03:25:22;;;;;;;6.35;3.53;;;18.50;99.90;;;;;;5033075;28;20068;-61
2023/07/23 03:27:47;;;;;;;6.65;4.50;;;18.50;99.90;;;;;;5034267;28;20052;-61
2023/07/23 03:30:13;;;;;;;6.13;4.30;;;18.50;99.90;;;;;;5021271;28;20119;-61
2023/07/23 03:32:39;;;;;;;20.17;4.30;;;18.60;99.90;;;;;;5037160;28;20501;-62
2023/07/23 03:35:05;;;;;;;14.77;4.40;;;18.60;99.90;;;;;;5026235;28;20037;-61
2023/07/23 03:37:31;;;;;;;8.65;4.22;;;18.60;99.90;;;;;;5033139;28;20061;-62
2023/07/23 03:39:56;;;;;;;7.45;3.80;;;18.60;99.90;;;;;;5033449;28;20113;-61
2023/07/23 03:42:24;;;;;;;6.43;4.25;;;18.50;99.90;;;;;;5043865;28;20040;-61
2023/07/23 03:44:49;;;;;;;7.57;4.55;;;18.50;99.90;;;;;;5029857;28;20028;-62
2023/07/23 03:47:19;;;;;;;9.95;3.97;;;18.60;99.90;;;;;;5032628;28;20520;-62
2023/07/23 03:49:46;;;;;;;8.45;4.32;;;18.60;99.90;;;;;;5033891;28;20037;-61
2023/07/23 03:52:12;;;;;;;7.25;4.10;;;18.60;99.90;;;;;;5041091;28;20040;-62
2023/07/23 03:54:38;;;;;;;5.97;3.97;;;18.50;99.90;;;;;;5032327;28;20034;-61
2023/07/23 03:57:04;;;;;;;9.02;4.32;;;18.50;99.90;;;;;;5034692;28;20029;-62
2023/07/23 03:59:41;;;;;;;5.88;3.78;;;18.50;99.90;;;;;;5035910;28;20041;-62
2023/07/23 04:02:07;;;;;;;7.32;4.00;;;18.60;99.90;;;;;;5027233;28;20034;-62
2023/07/23 04:04:34;;;;;;;6.80;3.63;;;18.50;99.90;;;;;;5030189;28;20080;-61
2023/07/23 04:06:59;;;;;;;8.93;4.28;;;18.50;99.90;;;;;;5038564;28;20468;-61
2023/07/23 04:09:25;;;;;;;6.15;3.78;;;18.50;99.90;;;;;;5035499;28;20067;-62
2023/07/23 04:11:51;;;;;;;8.02;4.30;;;18.50;99.90;;;;;;5031616;28;20017;-62
2023/07/23 04:14:16;;;;;;;6.00;4.00;;;18.50;99.90;;;;;;5031861;28;20043;-62
2023/07/23 04:16:42;;;;;;;10.25;3.72;;;18.50;99.90;;;;;;5030485;28;20037;-62
2023/07/23 04:19:07;;;;;;;6.38;3.72;;;18.40;99.90;;;;;;5035575;28;20037;-62
2023/07/23 04:21:33;;;;;;;9.02;4.03;;;18.40;99.90;;;;;;5026784;28;20074;-62
2023/07/23 04:24:00;;;;;;;5.25;3.90;;;18.40;99.90;;;;;;5034103;28;20485;-61
2023/07/23 04:26:28;;;;;;;7.88;3.90;;;18.40;99.90;;;;;;5036026;28;20056;-63
2023/07/23 04:28:54;;;;;;;6.53;3.40;;;18.40;99.90;;;;;;5036360;28;20693;-62
2023/07/23 04:31:19;;;;;;;9.07;3.60;;;18.40;99.90;;;;;;5029424;28;20112;-63
2023/07/23 04:33:45;;;;;;;13.48;3.85;;;18.40;99.90;;;;;;5030701;28;20151;-64
2023/07/23 04:36:13;;;;;;;5.88;3.47;;;18.50;99.90;;;;;;5029547;28;20422;-62
2023/07/23 04:38:39;;;;;;;5.50;3.47;;;18.50;99.90;;;;;;5035795;28;20029;-62
2023/07/23 04:41:05;;;;;;;8.27;4.78;;;18.50;99.90;;;;;;5031529;28;20017;-62
2023/07/23 04:43:32;;;;;;;6.82;4.07;;;18.50;99.90;;;;;;5034301;28;20040;-62
2023/07/23 04:45:58;;;;;;;7.32;3.65;;;18.50;99.90;;;;;;5031387;28;20017;-62
2023/07/23 04:48:23;;;;;;;7.13;4.22;;;18.50;99.90;;;;;;5037241;28;20048;-63
2023/07/23 04:50:59;;;;;;;7.97;3.78;;;18.50;99.90;;;;;;5024009;28;20053;-62
2023/07/23 04:53:25;;;;;;;10.70;3.85;;;18.50;99.90;;;;;;5029534;28;20101;-61
2023/07/23 04:55:55;;;;;;;6.20;3.85;;;18.60;99.90;;;;;;5032054;28;20496;-62
2023/07/23 04:58:21;;;;;;;12.35;3.95;;;18.60;99.90;;;;;;5034468;28;20103;-62
2023/07/23 05:00:47;;;;;;;4.75;3.25;;;18.60;99.90;;;;;;5020641;28;20022;-63
2023/07/23 05:03:13;;;;;;;8.02;3.78;;;18.70;99.90;;;;;;5032722;28;20041;-62
2023/07/23 05:05:44;;;;;;;7.55;3.72;;;18.70;99.90;;;;;;5029856;28;20497;-62
2023/07/23 05:08:10;;;;;;;7.38;3.55;;;18.60;99.90;;;;;;5032854;28;20482;-62
2023/07/23 05:10:35;;;;;;;7.22;3.65;;;18.70;99.90;;;;;;5030983;28;20031;-62
2023/07/23 05:13:01;;;;;;;8.10;3.80;;;18.70;99.90;;;;;;5023175;28;20501;-60
2023/07/23 05:15:26;;;;;;;6.95;4.15;;;18.80;99.90;;;;;;5025303;28;20509;-62
2023/07/23 05:17:52;;;;;;;11.85;3.78;;;18.80;99.90;;;;;;5036686;28;20071;-62
2023/07/23 05:20:18;;;;;;;14.13;4.22;;;18.80;99.90;;;;;;5034609;28;20492;-61
2023/07/23 05:22:44;;;;;;;6.78;3.60;;;18.90;99.90;;;;;;5035496;28;20481;-62
2023/07/23 05:25:09;;;;;;;7.25;4.10;;;18.80;99.90;;;;;;5028915;28;20053;-62
2023/07/23 05:27:35;;;;;;;9.63;4.10;;;18.90;99.90;;;;;;5035668;28;20028;-62
2023/07/23 05:30:01;;;;;;;11.95;3.60;;;18.90;99.90;;;;;;5034770;28;20097;-62
2023/07/23 05:32:27;;;;;;;6.20;3.65;;;18.90;99.90;;;;;;5025433;28;20501;-62
2023/07/23 05:34:55;;;;;;;9.30;4.20;;;18.90;99.90;;;;;;5031508;28;20053;-62
2023/07/23 05:37:20;;;;;;;5.28;3.45;;;18.90;99.90;;;;;;5031022;28;20438;-62
2023/07/23 05:39:48;;;;;;;6.60;3.85;;;18.90;99.90;;;;;;5025175;28;20056;-62
2023/07/23 05:42:14;;;;;;;7.82;3.47;;;19.00;99.90;;;;;;5027649;28;20034;-62
2023/07/23 05:44:39;;;;;;;9.32;3.97;;;19.00;99.90;;;;;;5031456;28;20635;-62
2023/07/23 05:47:05;;;;;;;10.07;3.63;;;19.00;99.90;;;;;;5037761;28;20448;-62
2023/07/23 05:49:30;;;;;;;5.63;3.47;;;19.10;99.90;;;;;;5037582;28;20500;-62
2023/07/23 05:51:58;;;;;;;5.60;3.35;;;19.20;99.90;;;;;;5046844;28;20480;-61
2023/07/23 05:54:24;;;;;;;11.18;4.10;;;19.30;99.90;;;;;;5034220;28;20021;-62
2023/07/23 05:56:50;;;;;;;6.85;4.03;;;19.30;99.90;;;;;;5032611;28;20037;-62
2023/07/23 05:59:15;;;;;;;5.75;3.47;;;19.40;99.90;;;;;;5040986;28;20033;-63
2023/07/23 06:01:41;;;;;;;6.45;3.63;;;19.40;99.90;;;;;;5034936;28;20025;-63
2023/07/23 06:04:06;;;;;;;5.13;3.70;;;19.50;99.90;;;;;;5036371;28;20037;-62
2023/07/23 06:06:32;;;;;;;7.50;3.40;;;19.50;99.90;;;;;;5031666;28;20033;-62
2023/07/23 06:08:57;;;;;;;7.00;3.42;;;19.50;99.90;;;;;;5039967;28;20021;-63
2023/07/23 06:11:23;;;;;;;5.53;3.25;;;19.60;99.90;;;;;;5032352;28;20021;-62
2023/07/23 06:13:49;;;;;;;6.97;3.20;;;19.70;99.90;;;;;;5035531;28;20045;-62
2023/07/23 06:16:14;;;;;;;4.35;3.05;;;19.70;99.90;;;;;;5034134;28;20036;-63
2023/07/23 06:18:40;;;;;;;7.93;2.92;;;19.70;99.90;;;;;;5038627;28;20033;-62
2023/07/23 06:21:05;;;;;;;5.35;2.70;;;19.80;99.90;;;;;;5043108;28;20034;-63
2023/07/23 06:23:33;;;;;;;4.72;3.05;;;19.80;99.90;;;;;;5034619;28;20174;-62
2023/07/23 06:25:58;;;;;;;5.25;3.15;;;19.80;99.90;;;;;;5029209;28;20036;-62
2023/07/23 06:28:24;;;;;;;4.60;2.90;;;19.80;99.90;;;;;;5028642;28;20042;-62
2023/07/23 06:30:50;;;;;;;9.88;3.05;;;19.90;99.90;;;;;;5030420;28;20096;-63
2023/07/23 06:33:16;;;;;;;6.28;2.97;;;19.90;99.90;;;;;;5037987;28;20461;-64
2023/07/23 06:35:43;;;;;;;5.10;3.30;;;19.90;99.90;;;;;;5037222;28;20100;-61
2023/07/23 06:38:09;;;;;;;4.93;3.00;;;19.90;99.90;;;;;;5042014;28;20060;-63
2023/07/23 06:40:34;;;;;;;7.13;3.15;;;19.90;99.90;;;;;;5032352;28;20057;-63
2023/07/23 06:43:00;;;;;;;9.95;2.90;;;19.90;99.90;;;;;;5051989;28;20075;-63
2023/07/23 06:45:26;;;;;;;6.75;2.53;;;20.00;99.90;;;;;;5032492;28;20040;-63
2023/07/23 06:47:51;;;;;;;4.28;2.65;;;20.00;99.90;;;;;;5029398;28;20242;-63
2023/07/23 06:50:18;;;;;;;7.13;3.60;;;20.10;99.90;;;;;;5027919;28;20094;-63
2023/07/23 06:52:44;;;;;;;7.78;2.90;;;20.10;99.90;;;;;;5032793;28;20659;-63
2023/07/23 06:55:09;;;;;;;5.78;2.40;;;20.10;99.90;;;;;;5027818;28;20112;-61
2023/07/23 06:57:35;;;;;;;7.93;2.88;;;20.10;99.90;;;;;;5038149;28;20116;-63
2023/07/23 07:00:00;;;;;;;5.68;2.78;;;20.00;99.90;;;;;;5032952;28;20493;-63
2023/07/23 07:02:26;;;;;;;3.38;2.80;;;20.10;99.90;;;;;;5028260;28;20026;-63
2023/07/23 07:04:51;;;;;;;13.73;2.95;;;20.10;99.90;;;;;;5031395;28;20049;-62
2023/07/23 07:07:17;;;;;;;4.80;2.50;;;19.90;99.90;;;;;;5030503;28;20426;-60
2023/07/23 07:09:43;;;;;;;3.80;2.83;;;19.80;99.90;;;;;;5028364;28;20631;-62
2023/07/23 07:12:08;;;;;;;6.85;2.67;;;19.90;99.90;;;;;;5037406;28;20071;-63
2023/07/23 07:14:34;;;;;;;5.55;2.80;;;19.60;99.90;;;;;;5034905;28;20082;-62
2023/07/23 07:17:00;;;;;;;4.75;2.63;;;19.40;99.90;;;;;;5036177;28;20029;-62
2023/07/23 07:19:25;;;;;;;5.45;3.00;;;19.30;99.90;;;;;;5034950;28;20028;-63
2023/07/23 07:21:51;;;;;;;6.32;3.50;;;19.20;99.90;;;;;;5031273;28;20040;-62
2023/07/23 07:24:17;;;;;;;6.80;2.90;;;19.20;99.90;;;;;;5032892;28;20026;-62
2023/07/23 07:26:42;;;;;;;6.80;3.08;;;19.20;99.90;;;;;;5032327;28;20036;-62
2023/07/23 07:29:08;;;;;;;5.68;3.00;;;19.10;99.90;;;;;;5034327;28;20029;-63
2023/07/23 07:31:34;;;;;;;2.95;2.47;;;19.00;99.90;;;;;;5033276;28;20030;-62
2023/07/23 07:33:59;;;;;;;5.75;3.13;;;19.10;99.90;;;;;;5034950;28;20028;-62
2023/07/23 07:36:25;;;;;;;4.55;2.25;;;19.00;99.90;;;;;;5028623;28;20505;-61
2023/07/23 07:38:50;;;;;;;12.57;2.78;;;19.00;99.90;;;;;;5028895;28;20025;-62
2023/07/23 07:41:16;;;;;;;10.00;3.25;;;18.90;99.90;;;;;;5033724;28;20562;-62
2023/07/23 07:43:41;;;;;;;5.03;2.80;;;18.90;99.90;;;;;;5037475;28;20032;-62
2023/07/23 07:46:08;;;;;;;6.28;3.17;;;18.90;99.90;;;;;;5026789;28;20093;-61
2023/07/23 07:48:35;;;;;;;5.38;2.47;;;18.70;99.90;;;;;;5029573;28;20071;-62
2023/07/23 07:51:03;;;;;;;6.43;2.90;;;18.60;99.90;;;;;;5036414;28;20029;-61
2023/07/23 07:53:28;;;;;;;4.65;2.92;;;18.60;99.90;;;;;;5036708;28;20048;-63
2023/07/23 07:55:55;;;;;;;3.63;2.63;;;18.50;99.90;;;;;;5029299;28;20052;-63
2023/07/23 07:58:27;;;;;;;4.38;2.42;;;18.50;99.90;;;;;;5032697;28;20067;-62
2023/07/23 08:00:56;;;;;;;4.93;2.47;;;18.50;99.90;;;;;;5028080;28;20057;-61
2023/07/23 08:03:23;;;;;;;4.63;2.55;;;18.20;99.90;;;;;;5038378;28;20032;-63
2023/07/23 08:05:49;;;;;;;6.13;3.30;;;18.20;99.90;;;;;;5022727;28;20638;-63
2023/07/23 08:08:18;;;;;;;4.75;2.65;;;18.10;99.90;;;;;;5028883;28;20404;-64
2023/07/23 08:10:45;;;;;;;3.13;2.10;;;18.00;99.90;;;;;;5028884;28;20049;-63
2023/07/23 08:13:13;;;;;;;5.57;2.85;;;18.00;99.90;;;;;;5024174;28;20025;-63
2023/07/23 08:15:39;;;;;;;4.95;3.03;;;18.10;99.90;;;;;;5034749;28;20075;-63
2023/07/23 08:18:05;;;;;;;4.18;2.72;;;18.00;99.90;;;;;;5036670;28;20057;-63
2023/07/23 08:20:32;;;;;;;10.30;3.38;;;18.00;99.90;;;;;;5035956;28;20021;-64
2023/07/23 08:22:58;;;;;;;7.82;2.90;;;17.90;99.90;;;;;;5032879;28;20445;-63
2023/07/23 08:25:24;;;;;;;13.70;3.08;;;17.90;99.90;;;;;;5033062;28;20060;-63
2023/07/23 08:27:58;;;;;;;4.82;3.08;;;17.80;99.90;;;;;;5029429;28;20037;-61
2023/07/23 08:30:24;;;;;;;7.95;4.05;;;17.80;99.90;;;;;;5038445;28;20021;-62
2023/07/23 08:32:51;;;;;;;12.05;4.15;;;17.60;99.90;;;;;;5025484;28;20032;-61
2023/07/23 08:35:17;;;;;;;7.95;3.35;;;17.50;99.90;;;;;;5036018;28;20021;-64
2023/07/23 08:37:43;;;;;;;7.10;3.45;;;17.50;99.90;;;;;;5022430;28;20545;-63
2023/07/23 08:40:09;;;;;;;7.97;3.03;;;17.50;99.90;;;;;;5030043;28;20053;-64
2023/07/23 08:42:54;;;;;;;6.00;3.30;;;17.40;99.90;;;;;;5030465;28;20034;-64
2023/07/23 08:45:31;;;;;;;5.88;3.08;;;17.30;99.90;;;;;;5029641;28;20447;-63
2023/07/23 08:48:17;;;;;;;11.48;3.83;;;17.30;99.90;;;;;;5032750;28;20385;-64
2023/07/23 08:50:44;;;;;;;9.50;3.22;;;17.30;99.90;;;;;;5027976;28;20029;-64
2023/07/23 08:53:12;;;;;;;9.32;3.58;;;17.30;99.90;;;;;;5024021;28;20496;-64
2023/07/23 08:55:40;;;;;;;6.07;3.65;;;17.30;99.90;;;;;;5027816;28;20044;-61
2023/07/23 08:58:07;;;;;;;9.35;4.10;;;17.30;99.90;;;;;;5034319;28;20029;-62
2023/07/23 09:00:33;;;;;;;9.45;3.63;;;17.30;99.90;;;;;;5030032;28;20033;-63
2023/07/23 09:03:03;;;;;;;7.82;4.07;;;17.30;99.90;;;;;;5030732;28;20109;-63
2023/07/23 09:05:29;;;;;;;7.13;3.97;;;17.30;99.90;;;;;;5034298;28;20044;-63
2023/07/23 09:07:55;;;;;;;8.82;4.55;;;17.30;99.90;;;;;;5032490;28;20167;-63
2023/07/23 09:10:20;;;;;;;15.60;4.05;;;17.30;99.90;;;;;;5034202;28;20441;-63
2023/07/23 09:12:46;;;;;;;10.30;4.05;;;17.30;99.90;;;;;;5031375;28;20030;-64
2023/07/23 09:15:13;;;;;;;10.73;5.28;;;17.40;99.90;;;;;;5031533;28;20034;-63
2023/07/23 09:17:39;;;;;;;10.20;5.03;;;17.60;99.90;;;;;;5036145;28;20029;-63
2023/07/23 09:20:09;;;;;;;7.88;4.45;;;17.70;99.90;;;;;;5026491;28;20022;-63
2023/07/23 09:22:35;;;;;;;6.78;3.78;;;17.70;99.90;;;;;;5035997;28;20044;-63
2023/07/23 09:25:01;;;;;;;10.95;5.18;;;17.70;99.90;;;;;;5034070;28;20029;-63
2023/07/23 09:27:37;;;;;;;11.98;4.13;;;17.80;99.90;;;;;;5034276;28;20025;-63
2023/07/23 09:30:03;;;;;;;7.72;3.90;;;17.90;99.90;;;;;;5033743;28;20029;-62
2023/07/23 09:32:30;;;;;;;5.35;3.30;;;18.00;99.90;;;;;;5034127;28;20028;-63
2023/07/23 09:34:57;;;;;;;4.65;2.75;;;18.10;99.90;;;;;;5033216;28;20037;-62
2023/07/23 09:37:25;;;;;;;5.03;3.38;;;18.30;99.90;;;;;;5034023;28;20044;-62
2023/07/23 09:39:57;;;;;;;5.80;2.95;;;18.40;99.90;;;;;;5039870;28;20342;-61
2023/07/23 09:42:23;;;;;;;5.93;2.75;;;18.40;99.90;;;;;;5029854;28;20040;-63
2023/07/23 09:44:49;;;;;;;6.22;2.60;;;18.50;99.90;;;;;;5033850;28;20083;-63
2023/07/23 09:47:15;;;;;;;3.25;2.53;;;18.50;99.90;;;;;;5034729;28;20396;-62
2023/07/23 09:49:43;;;;;;;6.97;2.92;;;18.50;99.90;;;;;;5030920;28;20117;-63
2023/07/23 09:52:09;;;;;;;4.65;3.00;;;18.50;99.90;;;;;;5029146;28;20104;-62
2023/07/23 09:54:35;;;;;;;5.97;2.88;;;18.50;99.90;;;;;;5033335;28;20223;-63
2023/07/23 09:57:02;;;;;;;10.55;3.67;;;18.40;99.90;;;;;;5032034;28;20064;-63
2023/07/23 09:59:28;;;;;;;8.73;3.30;;;18.50;99.90;;;;;;5034786;28;20561;-64
2023/07/23 10:01:56;;;;;;;7.63;3.88;;;18.40;99.90;;;;;;5031153;28;20124;-63
2023/07/23 10:04:23;;;;;;;11.00;2.80;;;18.30;99.90;;;;;;5028561;28;20026;-64
2023/07/23 10:06:48;;;;;;;8.43;3.28;;;18.10;99.90;;;;;;5030919;28;20040;-62
2023/07/23 10:09:15;;;;;;;8.20;3.58;;;18.10;99.90;;;;;;5031587;28;20026;-62
2023/07/23 10:11:41;;;;;;;6.65;2.92;;;18.00;99.90;;;;;;5029863;28;20025;-60
2023/07/23 10:14:06;;;;;;;5.47;3.25;;;18.10;99.90;;;;;;5027997;28;20056;-64
2023/07/23 10:16:40;;;;;;;4.43;3.13;;;18.00;99.90;;;;;;5032612;28;20098;-64
2023/07/23 10:19:08;;;;;;;7.30;2.75;;;18.00;99.90;;;;;;5028224;28;20025;-64
2023/07/23 10:21:35;;;;;;;7.43;3.47;;;17.90;99.90;;;;;;5030373;28;20017;-64
2023/07/23 10:24:02;;;;;;;7.65;3.45;;;18.10;99.90;;;;;;5032879;28;20041;-64
2023/07/23 10:26:29;;;;;;;7.20;3.60;;;18.20;99.90;;;;;;5035086;28;20084;-63
2023/07/23 10:28:58;;;;;;;5.90;3.50;;;18.30;99.90;;;;;;5033588;28;20116;-63
2023/07/23 10:31:28;;;;;;;8.30;4.00;;;18.30;99.90;;;;;;5033555;28;20029;-64
2023/07/23 10:33:54;;;;;;;4.07;3.17;;;18.30;99.90;;;;;;5032798;28;20096;-62
2023/07/23 10:36:22;;;;;;;7.13;3.72;;;18.40;99.90;;;;;;5029585;28;20029;-62
2023/07/23 10:39:22;;;;;;;6.15;3.13;;;18.30;99.90;;;;;;5030298;28;20042;-63
2023/07/23 10:41:55;;;;;;;5.57;2.55;;;18.30;99.90;;;;;;5029845;28;20030;-60
2023/07/23 10:44:27;;;;;;;5.07;3.05;;;18.40;99.90;;;;;;5040140;28;20021;-54
2023/07/23 10:46:53;;;;;;;4.13;2.78;;;18.40;99.90;;;;;;5033170;28;20094;-55
2023/07/23 10:49:24;;;;;;;9.70;3.25;;;18.50;99.90;;;;;;5035575;28;20018;-58
2023/07/23 10:51:50;;;;;;;6.05;3.17;;;18.60;99.90;;;;;;5031958;28;20033;-58
2023/07/23 10:54:18;;;;;;;4.88;2.85;;;18.60;99.90;;;;;;5036044;28;20014;-53
2023/07/23 10:56:43;;;;;;;5.25;3.17;;;18.70;99.90;;;;;;5031946;28;20443;-53
2023/07/23 10:59:19;;;;;;;4.55;2.78;;;18.70;99.90;;;;;;5037044;28;20108;-58
2023/07/23 11:01:45;;;;;;;5.18;2.47;;;18.80;99.90;;;;;;5030718;28;20539;-59
2023/07/23 11:04:25;;;;;;;5.00;2.70;;;18.70;99.90;;;;;;5029573;28;20171;-59
2023/07/23 11:07:01;;;;;;;4.25;2.80;;;18.80;99.90;;;;;;5029945;28;20546;-59
2023/07/23 11:09:30;;;;;;;5.10;2.92;;;18.90;99.90;;;;;;5032193;28;20033;-59
2023/07/23 11:11:56;;;;;;;3.80;2.30;;;18.90;99.90;;;;;;5035063;28;20088;-59
2023/07/23 11:14:26;;;;;;;4.45;2.40;;;18.90;99.90;;;;;;5028892;28;20502;-56
2023/07/23 11:16:58;;;;;;;4.90;2.15;;;19.00;99.90;;;;;;5035909;28;20029;-54
2023/07/23 11:19:26;;;;;;;5.88;2.60;;;19.00;99.90;;;;;;5030605;28;20032;-54
2023/07/23 11:21:56;;;;;;;4.13;2.80;;;19.10;99.90;;;;;;5047618;28;20034;-58
2023/07/23 11:24:24;;;;;;;6.07;2.75;;;19.10;99.90;;;;;;5038471;28;20245;-57
2023/07/23 11:26:50;;;;;;;5.20;2.33;;;19.10;99.90;;;;;;5034252;28;20057;-58
2023/07/23 11:29:16;;;;;;;3.58;2.17;;;19.10;99.90;;;;;;5039941;28;20053;-57
2023/07/23 11:31:42;;;;;;;5.40;2.05;;;19.10;99.90;;;;;;5034281;28;20127;-57
2023/07/23 11:34:08;;;;;;;4.75;2.13;;;19.20;99.90;;;;;;5033527;28;20029;-58
2023/07/23 11:36:35;;;;;;;8.10;2.15;;;19.30;99.90;;;;;;5034603;28;20071;-60
2023/07/23 11:39:01;;;;;;;4.57;2.03;;;19.30;99.90;;;;;;5036018;28;20075;-60
2023/07/23 11:41:32;;;;;;;2.80;1.85;;;19.50;99.90;;;;;;5035255;28;20025;-55
2023/07/23 11:43:58;;;;;;;5.05;1.80;;;19.60;99.90;;;;;;5030189;28;20024;-59
2023/07/23 11:46:25;;;;;;;2.22;1.77;;;19.70;99.90;;;;;;5046850;28;20025;-57
2023/07/23 11:48:53;;;;;;;3.40;1.60;;;19.70;99.90;;;;;;5041776;28;20031;-56
2023/07/23 11:51:19;;;;;;;1.65;1.33;;;19.80;99.90;;;;;;5035020;28;20021;-55
2023/07/23 11:53:44;;;;;;;1.67;1.50;;;19.80;99.90;;;;;;5032708;28;20096;-53
2023/07/23 11:56:13;;;;;;;1.75;1.08;;;19.90;99.90;;;;;;5033218;28;20053;-58
2023/07/23 11:58:40;;;;;;;5.70;1.38;;;19.90;99.90;;;;;;5033326;28;20370;-57
2023/07/23 12:01:07;;;;;;;1.17;0.90;;;20.00;99.90;;;;;;5032298;28;20033;-58
2023/07/23 12:03:42;;;;;;;3.25;1.40;;;20.10;99.90;;;;;;5033229;28;20051;-58
2023/07/23 12:06:09;;;;;;;1.40;1.10;;;20.20;99.90;;;;;;5032681;28;20065;-56
2023/07/23 12:08:38;;;;;;;2.67;1.40;;;20.20;99.90;;;;;;5039189;28;20108;-60
2023/07/23 12:11:11;;;;;;;1.80;1.40;;;20.30;99.90;;;;;;5030687;28;20057;-58
2023/07/23 12:13:45;;;;;;;1.37;1.27;;;20.30;99.90;;;;;;5032176;28;20819;-57
2023/07/23 12:16:29;;;;;;;2.03;1.20;;;20.30;99.90;;;;;;5031645;28;20082;-58
2023/07/23 12:19:00;;;;;;;1.67;1.35;;;20.40;99.90;;;;;;5033432;28;20030;-58
2023/07/23 12:21:27;;;;;;;1.38;1.20;;;20.50;99.90;;;;;;5028949;28;20074;-61
2023/07/23 12:23:53;;;;;;;1.58;1.17;;;20.60;99.90;;;;;;5032886;28;20074;-60
2023/07/23 12:26:18;;;;;;;6.05;1.27;;;20.80;99.90;;;;;;5032417;28;20488;-60
2023/07/23 12:28:44;;;;;;;1.00;0.90;;;20.80;99.90;;;;;;5031999;28;20017;-60
2023/07/23 12:31:10;;;;;;;3.90;1.48;;;20.80;99.90;;;;;;5031567;28;20056;-61
2023/07/23 12:33:36;;;;;;;3.53;1.38;;;20.80;99.90;;;;;;5030699;28;20513;-59
2023/07/23 12:36:03;;;;;;;1.95;1.08;;;20.90;99.90;;;;;;5032504;28;20033;-58
2023/07/23 12:38:28;;;;;;;2.08;1.50;;;20.90;99.90;;;;;;5032961;28;20025;-58
2023/07/23 12:40:54;;;;;;;4.13;1.70;;;21.00;99.90;;;;;;5034445;28;20055;-59
2023/07/23 12:43:19;;;;;;;1.52;0.93;;;21.10;99.90;;;;;;5031730;28;20025;-58